Time;durP1;ratioP1;P1;durP2;ratioP2;P2;SDS_P1;SDS_P2;PMS_P1;PMS_P2;Temp;Humidity;BMP_temperature;BMP_pressure;BME280_temperature;BME280_humidity;BME280_pressure;Samples;Min_cycle;Max_cycle;Signal;HPM_P1;HPM_P2
2023/11/16 00:02:23;;;;;;;0.50;0.40;;;;;;;7.85;75.08;93979.25;4888563;29;20029;-80
2023/11/16 00:05:23;;;;;;;3.10;0.80;;;;;;;7.79;74.22;93997.13;4888400;29;20032;-80
2023/11/16 00:07:48;;;;;;;1.00;0.50;;;;;;;7.77;73.74;93975.38;4888311;29;20029;-80
2023/11/16 00:10:16;;;;;;;0.55;0.40;;;;;;;7.75;72.59;93972.25;4887283;29;20039;-80
2023/11/16 00:12:42;;;;;;;2.80;0.85;;;;;;;7.74;72.76;93976.00;4888286;29;20029;-80
2023/11/16 00:15:08;;;;;;;2.38;0.80;;;;;;;7.71;73.01;93989.81;4888288;29;20065;-81
2023/11/16 00:17:37;;;;;;;1.17;0.68;;;;;;;7.73;72.67;93998.28;4888191;29;20068;-81
2023/11/16 00:20:07;;;;;;;1.40;0.93;;;;;;;7.71;71.87;93995.13;4888284;29;20093;-80
2023/11/16 00:22:33;;;;;;;1.55;0.80;;;;;;;7.68;72.02;94002.91;4888369;29;20025;-81
2023/11/16 00:24:59;;;;;;;1.63;0.70;;;;;;;7.64;71.92;94011.44;4888267;29;20073;-80
2023/11/16 00:27:26;;;;;;;3.95;0.73;;;;;;;7.67;72.38;94018.00;4888151;29;20017;-80
2023/11/16 00:29:52;;;;;;;1.48;0.75;;;;;;;7.61;72.27;93987.34;4888110;29;20036;-81
2023/11/16 00:32:18;;;;;;;1.92;0.63;;;;;;;7.62;71.71;94004.84;4887073;29;20044;-80
2023/11/16 00:34:44;;;;;;;1.52;0.80;;;;;;;7.60;72.08;94021.03;4888362;29;20040;-80
2023/11/16 00:37:10;;;;;;;1.55;0.70;;;;;;;7.64;72.35;94021.25;4888025;29;20068;-81
2023/11/16 00:39:38;;;;;;;2.08;0.82;;;;;;;7.63;72.12;94009.88;4890569;29;20035;-80
2023/11/16 00:42:05;;;;;;;2.30;1.00;;;;;;;7.63;71.56;94009.88;4891532;29;20033;-80
2023/11/16 00:44:30;;;;;;;1.85;0.80;;;;;;;7.64;71.20;94015.97;4891473;29;20096;-80
2023/11/16 00:46:57;;;;;;;1.90;0.93;;;;;;;7.66;71.46;94024.41;4891378;29;20048;-80
2023/11/16 00:49:23;;;;;;;1.45;0.70;;;;;;;7.69;70.41;94004.47;4891354;29;20025;-80
2023/11/16 00:51:49;;;;;;;1.85;0.70;;;;;;;7.73;69.56;94019.50;4891379;29;20033;-80
2023/11/16 00:54:15;;;;;;;2.00;0.80;;;;;;;7.74;70.02;94025.63;4891143;29;20040;-80
2023/11/16 00:56:41;;;;;;;2.65;0.77;;;;;;;7.72;70.03;94015.28;4891320;29;20031;-80
2023/11/16 00:59:07;;;;;;;1.20;0.68;;;;;;;7.73;69.31;94016.84;4891181;29;20060;-80
2023/11/16 01:01:33;;;;;;;4.05;1.02;;;;;;;7.73;68.98;94014.19;4891184;29;20212;-79
2023/11/16 01:04:00;;;;;;;1.00;0.60;;;;;;;7.78;67.46;94014.13;4890934;29;20072;-80
2023/11/16 01:06:27;;;;;;;3.60;0.73;;;;;;;7.81;67.57;94010.88;4891193;29;20311;-81
2023/11/16 01:08:52;;;;;;;1.33;0.68;;;;;;;7.79;67.23;94005.06;4891069;29;20095;-80
2023/11/16 01:11:27;;;;;;;3.28;0.70;;;;;;;7.87;66.61;94026.72;4891062;29;20021;-81
2023/11/16 01:13:56;;;;;;;1.27;0.60;;;;;;;7.83;66.08;94029.94;4891024;29;20096;-81
2023/11/16 01:16:25;;;;;;;1.30;0.60;;;;;;;7.80;65.98;94035.84;4891034;29;20029;-81
2023/11/16 01:18:55;;;;;;;0.80;0.60;;;;;;;7.84;66.31;94036.06;4889925;29;20081;-82
2023/11/16 01:21:20;;;;;;;1.13;0.70;;;;;;;7.88;67.33;94047.69;4890843;29;20076;-80
2023/11/16 01:23:47;;;;;;;1.08;0.70;;;;;;;7.84;67.56;94044.81;4891189;29;20049;-79
2023/11/16 01:26:15;;;;;;;1.92;0.93;;;;;;;7.83;68.32;94045.88;4891191;29;20090;-80
2023/11/16 01:28:50;;;;;;;3.47;1.02;;;;;;;7.80;69.48;94037.72;4891311;29;20053;-80
2023/11/16 01:31:20;;;;;;;1.42;0.85;;;;;;;7.74;69.82;94036.22;4891004;29;20048;-80
2023/11/16 01:33:46;;;;;;;3.65;0.80;;;;;;;7.71;70.12;94034.94;4891081;29;20032;-81
2023/11/16 01:36:16;;;;;;;2.05;0.80;;;;;;;7.68;69.26;94043.47;4890883;29;20268;-82
2023/11/16 01:38:48;;;;;;;2.05;0.90;;;;;;;7.66;68.12;94042.97;4890490;29;20025;-82
2023/11/16 01:41:14;;;;;;;2.03;0.50;;;;;;;7.70;67.50;94051.94;4889668;29;20036;-82
2023/11/16 01:43:40;;;;;;;2.13;0.88;;;;;;;7.75;67.33;94056.38;4889886;29;20056;-82
2023/11/16 01:46:06;;;;;;;1.50;0.70;;;;;;;7.73;67.25;94030.13;4889288;29;20037;-81
2023/11/16 01:48:37;;;;;;;1.65;0.60;;;;;;;7.78;67.25;94053.16;4890466;29;20048;-81
2023/11/16 01:51:06;;;;;;;1.23;0.73;;;;;;;7.78;67.15;94038.00;4890542;29;20035;-81
2023/11/16 01:53:44;;;;;;;1.33;0.70;;;;;;;7.78;67.37;94058.47;4890344;29;20056;-81
2023/11/16 01:56:11;;;;;;;1.17;0.77;;;;;;;7.81;67.62;94048.03;4889109;29;20029;-80
2023/11/16 01:58:37;;;;;;;1.80;0.77;;;;;;;7.80;67.67;94041.16;4890400;29;20068;-80
2023/11/16 02:01:04;;;;;;;0.90;0.40;;;;;;;7.74;67.80;94039.66;4890423;29;20039;-80
2023/11/16 02:03:30;;;;;;;1.25;0.70;;;;;;;7.77;66.99;94039.06;4888917;29;20088;-80
2023/11/16 02:05:56;;;;;;;1.15;0.63;;;;;;;7.86;67.00;94038.41;4890177;29;20021;-80
2023/11/16 02:08:22;;;;;;;1.10;0.63;;;;;;;7.91;67.08;94060.34;4888992;29;20255;-79
2023/11/16 02:10:48;;;;;;;0.88;0.50;;;;;;;7.96;67.47;94070.91;4889980;29;20049;-80
2023/11/16 02:13:20;;;;;;;1.85;0.88;;;;;;;8.00;67.74;94074.53;4890145;29;20024;-80
2023/11/16 02:15:49;;;;;;;1.27;0.70;;;;;;;8.02;67.88;94061.75;4890271;29;20036;-80
2023/11/16 02:18:16;;;;;;;1.38;0.60;;;;;;;7.99;68.10;94067.66;4890270;29;20272;-80
2023/11/16 02:20:45;;;;;;;4.85;0.85;;;;;;;8.04;68.80;94066.78;4890076;29;20036;-80
2023/11/16 02:23:10;;;;;;;3.13;0.70;;;;;;;7.98;68.64;94062.66;4889771;29;20029;-80
2023/11/16 02:25:43;;;;;;;1.08;0.70;;;;;;;7.97;69.35;94063.72;4888633;29;20267;-80
2023/11/16 02:28:09;;;;;;;1.35;0.88;;;;;;;7.91;69.22;94063.00;4889699;29;20028;-80
2023/11/16 02:30:36;;;;;;;2.80;1.17;;;;;;;7.89;69.82;94067.81;4889774;29;20208;-80
2023/11/16 02:33:04;;;;;;;2.63;1.17;;;;;;;7.92;70.56;94071.78;4889485;29;20045;-80
2023/11/16 02:35:31;;;;;;;2.78;1.38;;;;;;;7.94;70.46;94072.28;4889662;29;20327;-79
2023/11/16 02:37:59;;;;;;;1.40;0.85;;;;;;;7.92;70.46;94067.25;4889297;29;20021;-79
2023/11/16 02:40:28;;;;;;;2.72;1.02;;;;;;;7.98;69.89;94078.56;4889621;29;20307;-79
2023/11/16 02:42:54;;;;;;;1.42;0.70;;;;;;;8.00;69.81;94076.41;4889501;29;20057;-79
2023/11/16 02:45:23;;;;;;;6.85;1.08;;;;;;;7.99;69.90;94088.09;4889415;29;20048;-79
2023/11/16 02:47:53;;;;;;;4.30;2.08;;;;;;;7.92;70.24;94090.34;4889283;29;20029;-79
2023/11/16 02:50:20;;;;;;;1.73;0.98;;;;;;;7.92;70.32;94107.06;4889069;29;20033;-79
2023/11/16 02:52:46;;;;;;;4.20;0.77;;;;;;;7.92;70.62;94107.06;4889343;29;20041;-79
2023/11/16 02:55:12;;;;;;;0.98;0.70;;;;;;;7.93;70.81;94118.47;4889412;29;20056;-79
2023/11/16 02:57:39;;;;;;;2.33;0.88;;;;;;;7.89;70.79;94120.09;4887960;29;20036;-79
2023/11/16 03:00:17;;;;;;;4.10;1.00;;;;;;;7.88;70.95;94089.34;4889102;29;20263;-79
2023/11/16 03:02:44;;;;;;;1.92;0.85;;;;;;;7.88;70.85;94110.59;4888886;29;20032;-79
2023/11/16 03:05:14;;;;;;;1.15;0.65;;;;;;;7.82;70.05;94081.47;4889111;29;20025;-79
2023/11/16 03:07:43;;;;;;;8.70;0.90;;;;;;;7.78;70.25;94083.13;4887763;29;20085;-79
2023/11/16 03:10:11;;;;;;;1.88;0.80;;;;;;;7.74;68.69;94094.59;4889007;29;20024;-79
2023/11/16 03:12:37;;;;;;;1.27;0.70;;;;;;;7.77;68.24;94110.72;4889158;29;20096;-81
2023/11/16 03:15:06;;;;;;;8.35;1.67;;;;;;;7.76;67.94;94108.38;4887723;29;20028;-80
2023/11/16 03:17:32;;;;;;;2.30;0.65;;;;;;;7.77;68.29;94116.03;4888835;29;20029;-80
2023/11/16 03:19:58;;;;;;;3.95;1.25;;;;;;;7.79;68.34;94108.56;4888827;29;20021;-80
2023/11/16 03:22:25;;;;;;;2.35;0.98;;;;;;;7.76;67.99;94109.16;4888947;29;20033;-80
2023/11/16 03:24:51;;;;;;;2.72;1.13;;;;;;;7.76;67.89;94119.75;4888758;29;20029;-79
2023/11/16 03:27:16;;;;;;;0.88;0.63;;;;;;;7.75;67.75;94112.88;4888826;29;20044;-79
2023/11/16 03:29:41;;;;;;;1.77;1.00;;;;;;;7.72;67.59;94105.50;4888991;29;20032;-81
2023/11/16 03:32:07;;;;;;;3.05;0.77;;;;;;;7.72;66.95;94112.69;4888895;29;20021;-81
2023/11/16 03:34:33;;;;;;;1.50;0.80;;;;;;;7.68;67.21;94122.28;4889030;29;20073;-81
2023/11/16 03:36:59;;;;;;;2.15;0.80;;;;;;;7.68;67.21;94119.63;4887655;29;20100;-80
2023/11/16 03:39:25;;;;;;;1.67;0.73;;;;;;;7.72;67.24;94113.47;4888901;29;20054;-80
2023/11/16 03:41:52;;;;;;;2.50;0.98;;;;;;;7.64;67.19;94117.53;4887854;29;20431;-80
2023/11/16 03:44:17;;;;;;;1.20;0.65;;;;;;;7.61;66.98;94107.53;4889015;29;20025;-81
2023/11/16 03:46:44;;;;;;;1.67;0.63;;;;;;;7.59;67.15;94130.91;4888944;29;20021;-81
2023/11/16 03:49:09;;;;;;;3.35;1.08;;;;;;;7.59;67.42;94114.16;4888915;29;20033;-81
2023/11/16 03:51:34;;;;;;;1.40;0.70;;;;;;;7.56;67.55;94123.50;4888966;29;20025;-81
2023/11/16 03:54:00;;;;;;;1.48;0.77;;;;;;;7.59;67.20;94132.75;4888763;29;20041;-81
2023/11/16 03:56:25;;;;;;;1.30;0.60;;;;;;;7.61;67.47;94141.19;4888654;29;20033;-81
2023/11/16 03:58:51;;;;;;;1.27;0.77;;;;;;;7.60;67.91;94132.47;4887671;29;20052;-81
2023/11/16 04:01:17;;;;;;;2.10;1.00;;;;;;;7.61;68.53;94134.06;4888649;29;20024;-81
2023/11/16 04:03:44;;;;;;;2.00;0.93;;;;;;;7.61;68.45;94149.16;4887647;29;20025;-82
2023/11/16 04:06:19;;;;;;;5.28;1.00;;;;;;;7.60;68.09;94142.28;4888432;29;20028;-79
2023/11/16 04:08:46;;;;;;;3.80;1.02;;;;;;;7.62;67.47;94167.44;4888757;29;20032;-79
2023/11/16 04:11:11;;;;;;;5.45;2.00;;;;;;;7.61;66.68;94151.81;4888697;29;20025;-80
2023/11/16 04:13:37;;;;;;;1.98;1.25;;;;;;;7.67;66.83;94152.53;4889471;29;20032;-80
2023/11/16 04:16:06;;;;;;;1.98;1.05;;;;;;;7.67;66.85;94155.97;4892114;29;20029;-80
2023/11/16 04:18:33;;;;;;;2.05;0.88;;;;;;;7.67;66.73;94169.22;4892273;29;20025;-79
2023/11/16 04:20:58;;;;;;;1.77;0.85;;;;;;;7.66;66.66;94178.28;4892021;29;20260;-80
2023/11/16 04:23:25;;;;;;;1.38;0.70;;;;;;;7.65;66.72;94147.50;4891994;29;20025;-79
2023/11/16 04:25:54;;;;;;;1.40;0.80;;;;;;;7.65;66.06;94163.44;4892093;29;20321;-79
2023/11/16 04:28:21;;;;;;;1.52;0.77;;;;;;;7.63;66.39;94163.72;4891782;29;20016;-79
2023/11/16 04:30:46;;;;;;;2.53;1.05;;;;;;;7.67;65.78;94163.94;4890811;29;20025;-79
2023/11/16 04:33:12;;;;;;;2.03;0.90;;;;;;;7.63;64.76;94162.94;4891676;29;20049;-79
2023/11/16 04:35:37;;;;;;;4.50;1.13;;;;;;;7.65;65.20;94160.78;4890455;29;20028;-80
2023/11/16 04:38:04;;;;;;;2.13;0.93;;;;;;;7.60;66.06;94166.16;4891593;29;20040;-79
2023/11/16 04:40:29;;;;;;;4.75;1.20;;;;;;;7.58;67.01;94163.78;4891699;29;20036;-81
2023/11/16 04:42:55;;;;;;;1.75;0.77;;;;;;;7.54;67.00;94185.88;4891790;29;20040;-80
2023/11/16 04:45:20;;;;;;;1.45;0.85;;;;;;;7.50;67.20;94182.22;4891534;29;20145;-80
2023/11/16 04:47:46;;;;;;;2.75;1.17;;;;;;;7.42;65.75;94186.28;4891732;29;20311;-81
2023/11/16 04:50:18;;;;;;;1.67;1.00;;;;;;;7.50;64.87;94187.53;4890448;29;20073;-79
2023/11/16 04:52:46;;;;;;;2.27;0.70;;;;;;;7.51;64.32;94170.50;4891275;29;20057;-78
2023/11/16 04:55:12;;;;;;;0.88;0.47;;;;;;;7.45;63.38;94172.47;4891585;29;20013;-80
2023/11/16 04:57:38;;;;;;;2.38;0.52;;;;;;;7.46;63.45;94173.25;4891136;29;20326;-79
2023/11/16 05:00:11;;;;;;;2.33;0.93;;;;;;;7.50;62.81;94185.66;4891064;29;20073;-79
2023/11/16 05:02:37;;;;;;;2.60;0.85;;;;;;;7.48;62.28;94197.63;4891089;29;20088;-80
2023/11/16 05:05:03;;;;;;;1.60;0.77;;;;;;;7.49;62.42;94204.50;4891152;29;20035;-80
2023/11/16 05:07:29;;;;;;;2.13;0.60;;;;;;;7.53;61.88;94192.25;4891098;29;20256;-78
2023/11/16 05:09:54;;;;;;;3.35;0.50;;;;;;;7.51;61.72;94207.66;4890886;29;20025;-78
2023/11/16 05:12:19;;;;;;;1.73;0.77;;;;;;;7.53;62.97;94208.97;4890877;29;20021;-78
2023/11/16 05:14:45;;;;;;;1.42;0.77;;;;;;;7.50;62.72;94212.16;4891015;29;20244;-78
2023/11/16 05:17:10;;;;;;;2.47;0.80;;;;;;;7.51;63.04;94215.59;4890827;29;20028;-78
2023/11/16 05:19:37;;;;;;;3.58;0.88;;;;;;;7.48;62.91;94206.38;4890698;29;20060;-79
2023/11/16 05:22:02;;;;;;;1.25;0.70;;;;;;;7.49;63.10;94210.63;4890682;29;20048;-79
2023/11/16 05:24:28;;;;;;;1.88;0.65;;;;;;;7.46;63.57;94215.69;4890328;29;20028;-78
2023/11/16 05:27:01;;;;;;;1.08;0.68;;;;;;;7.42;63.14;94196.91;4890674;29;20020;-78
2023/11/16 05:29:27;;;;;;;2.08;0.80;;;;;;;7.42;63.37;94210.94;4890624;29;20100;-77
2023/11/16 05:31:53;;;;;;;1.95;0.80;;;;;;;7.46;63.26;94226.28;4890377;29;20028;-77
2023/11/16 05:34:18;;;;;;;0.75;0.50;;;;;;;7.44;63.34;94203.47;4890590;29;20033;-78
2023/11/16 05:36:46;;;;;;;2.15;0.68;;;;;;;7.43;64.22;94228.44;4890645;29;20029;-78
2023/11/16 05:39:12;;;;;;;2.38;0.80;;;;;;;7.39;64.64;94224.78;4889262;29;20107;-78
2023/11/16 05:41:37;;;;;;;1.10;0.75;;;;;;;7.36;64.92;94232.50;4890310;29;20089;-78
2023/11/16 05:44:03;;;;;;;2.03;1.17;;;;;;;7.39;64.86;94224.78;4890495;29;20319;-78
2023/11/16 05:46:31;;;;;;;1.77;0.90;;;;;;;7.40;64.46;94229.00;4890243;29;20247;-77
2023/11/16 05:48:57;;;;;;;3.28;0.60;;;;;;;7.46;64.04;94239.56;4890395;29;20020;-78
2023/11/16 05:51:22;;;;;;;2.25;0.77;;;;;;;7.51;64.46;94239.47;4890334;29;20137;-78
2023/11/16 05:53:48;;;;;;;1.08;0.68;;;;;;;7.51;63.39;94244.78;4890270;29;20041;-79
2023/11/16 05:56:13;;;;;;;1.25;0.60;;;;;;;7.56;63.79;94247.38;4890455;29;20046;-79
2023/11/16 05:58:38;;;;;;;1.92;0.65;;;;;;;7.56;63.28;94260.66;4890222;29;20326;-78
2023/11/16 06:01:04;;;;;;;1.25;0.50;;;;;;;7.59;62.62;94258.22;4890228;29;20104;-80
2023/11/16 06:03:31;;;;;;;1.05;0.50;;;;;;;7.60;62.27;94266.97;4889348;29;20100;-80
2023/11/16 06:05:58;;;;;;;1.23;0.50;;;;;;;7.63;61.62;94274.34;4890609;29;20024;-80
2023/11/16 06:08:24;;;;;;;0.50;0.40;;;;;;;7.66;61.39;94255.22;4890400;29;20021;-81
2023/11/16 06:10:50;;;;;;;1.13;0.60;;;;;;;7.71;61.63;94268.41;4890283;29;20064;-81
2023/11/16 06:13:22;;;;;;;1.98;0.80;;;;;;;7.76;61.54;94284.28;4890311;29;20362;-80
2023/11/16 06:15:48;;;;;;;1.58;0.52;;;;;;;7.78;61.96;94273.38;4888916;29;20036;-78
2023/11/16 06:18:15;;;;;;;1.83;0.75;;;;;;;7.86;62.13;94282.56;4890302;29;20024;-79
2023/11/16 06:20:43;;;;;;;1.48;0.80;;;;;;;7.87;62.48;94297.44;4888846;29;20032;-79
2023/11/16 06:23:08;;;;;;;2.60;0.98;;;;;;;7.84;63.37;94290.81;4890286;29;20160;-80
2023/11/16 06:25:34;;;;;;;1.30;0.50;;;;;;;7.83;62.20;94308.59;4888771;29;20025;-81
2023/11/16 06:27:59;;;;;;;1.65;0.60;;;;;;;7.86;62.05;94295.81;4889853;29;20017;-81
2023/11/16 06:30:25;;;;;;;1.35;0.60;;;;;;;7.86;61.68;94293.97;4889761;29;20021;-81
2023/11/16 06:32:50;;;;;;;4.47;0.80;;;;;;;7.90;61.11;94294.22;4889518;29;20029;-81
2023/11/16 06:35:15;;;;;;;1.67;0.80;;;;;;;7.96;61.28;94295.72;4889316;29;20032;-80
2023/11/16 06:37:41;;;;;;;1.08;0.63;;;;;;;7.94;60.34;94306.63;4888827;29;20315;-80
2023/11/16 06:40:10;;;;;;;1.23;0.50;;;;;;;7.96;59.79;94301.03;4889423;29;20354;-79
2023/11/16 06:42:36;;;;;;;3.22;0.70;;;;;;;8.01;60.12;94301.75;4889471;29;20028;-80
2023/11/16 06:45:04;;;;;;;0.43;0.38;;;;;;;8.08;59.86;94305.91;4889257;29;20029;-79
2023/11/16 06:47:32;;;;;;;1.38;0.60;;;;;;;8.13;58.90;94293.34;4889274;29;20052;-79
2023/11/16 06:49:57;;;;;;;3.53;0.70;;;;;;;8.13;58.92;94296.00;4889376;29;20092;-79
2023/11/16 06:52:26;;;;;;;1.33;0.70;;;;;;;8.15;58.73;94304.47;4889242;29;20104;-78
2023/11/16 06:54:53;;;;;;;0.95;0.60;;;;;;;8.17;59.92;94307.63;4887849;29;20375;-80
2023/11/16 06:57:22;;;;;;;1.30;0.52;;;;;;;8.23;59.28;94303.06;4888848;29;20059;-78
2023/11/16 06:59:49;;;;;;;1.00;0.50;;;;;;;8.28;59.46;94321.56;4888976;29;20025;-79
2023/11/16 07:02:14;;;;;;;1.33;0.55;;;;;;;8.33;59.23;94321.50;4889243;29;20025;-80
2023/11/16 07:04:41;;;;;;;2.40;0.55;;;;;;;8.31;58.29;94320.22;4888833;29;20020;-79
2023/11/16 07:07:06;;;;;;;1.60;0.88;;;;;;;8.30;58.85;94302.69;4888792;29;20029;-80
2023/11/16 07:09:32;;;;;;;0.75;0.40;;;;;;;8.37;58.66;94314.53;4888850;29;20260;-79
2023/11/16 07:11:59;;;;;;;0.77;0.50;;;;;;;8.42;58.68;94317.13;4888887;29;20020;-78
2023/11/16 07:14:24;;;;;;;0.88;0.43;;;;;;;8.40;58.24;94305.19;4887548;29;20029;-77
2023/11/16 07:16:53;;;;;;;4.10;1.77;;;;;;;8.51;60.13;94304.00;4887442;29;20077;-75
2023/11/16 07:19:19;;;;;;;2.95;0.70;;;;;;;8.51;60.10;94311.16;4888493;29;20080;-75
2023/11/16 07:21:44;;;;;;;1.98;0.60;;;;;;;8.57;58.64;94300.19;4888772;29;20307;-75
2023/11/16 07:24:11;;;;;;;0.85;0.47;;;;;;;8.59;58.71;94311.34;4888373;29;20045;-75
2023/11/16 07:26:37;;;;;;;4.28;0.65;;;;;;;8.60;58.83;94302.25;4888544;29;20036;-76
2023/11/16 07:29:03;;;;;;;0.40;0.30;;;;;;;8.67;58.32;94317.06;4888514;29;20040;-76
2023/11/16 07:31:29;;;;;;;3.78;0.40;;;;;;;8.64;58.55;94302.47;4888428;29;20033;-75
2023/11/16 07:33:57;;;;;;;1.35;0.43;;;;;;;8.68;57.09;94297.38;4889213;29;20092;-87
2023/11/16 07:36:27;;;;;;;0.30;0.30;;;;;;;8.73;57.52;94299.94;4887278;29;20058;-83
2023/11/16 07:38:57;;;;;;;0.80;0.55;;;;;;;8.64;56.83;94302.47;4887422;29;20104;-82
2023/11/16 07:41:30;;;;;;;1.15;0.65;;;;;;;8.61;56.91;94298.53;4888717;29;20227;-82
2023/11/16 07:43:56;;;;;;;1.05;0.50;;;;;;;8.60;57.29;94312.13;4888625;29;20334;-83
2023/11/16 07:46:22;;;;;;;2.10;0.60;;;;;;;8.64;57.79;94324.53;4888424;29;20277;-84
2023/11/16 07:48:49;;;;;;;1.67;0.40;;;;;;;8.64;57.52;94289.97;4891997;29;20112;-85
2023/11/16 07:51:14;;;;;;;0.93;0.47;;;;;;;8.66;58.03;94310.97;4892342;29;20025;-82
2023/11/16 07:53:42;;;;;;;1.05;0.60;;;;;;;8.64;57.95;94319.22;4892228;29;20048;-84
2023/11/16 07:56:08;;;;;;;0.82;0.50;;;;;;;8.76;58.55;94326.75;4892252;29;20052;-85
2023/11/16 07:58:34;;;;;;;0.90;0.40;;;;;;;8.85;58.20;94350.78;4892110;29;20319;-84
2023/11/16 08:01:04;;;;;;;1.25;0.55;;;;;;;8.89;58.94;94343.03;4891948;29;20032;-85
2023/11/16 08:03:42;;;;;;;2.10;0.70;;;;;;;8.98;59.28;94344.75;4892155;29;20032;-85
2023/11/16 08:06:15;;;;;;;1.98;0.82;;;;;;;9.06;59.76;94355.78;4892085;29;20024;-83
2023/11/16 08:08:42;;;;;;;2.15;0.77;;;;;;;9.15;58.81;94362.81;4891926;29;20052;-83
2023/11/16 08:11:12;;;;;;;1.52;0.73;;;;;;;9.17;58.92;94358.00;4891912;29;20237;-82
2023/11/16 08:13:42;;;;;;;1.90;0.73;;;;;;;9.10;57.45;94364.75;4892372;29;20227;-84
2023/11/16 08:16:21;;;;;;;0.77;0.50;;;;;;;8.95;56.08;94361.25;4891795;29;20057;-83
2023/11/16 08:18:50;;;;;;;1.08;0.40;;;;;;;8.91;56.02;94362.13;4890771;29;20036;-83
2023/11/16 08:21:16;;;;;;;0.95;0.40;;;;;;;8.80;57.34;94367.63;4890810;29;20064;-84
2023/11/16 08:23:46;;;;;;;1.10;0.50;;;;;;;8.91;57.35;94360.25;4891822;29;20048;-85
2023/11/16 08:26:13;;;;;;;1.30;0.40;;;;;;;8.99;57.22;94361.47;4892147;29;20216;-83
2023/11/16 08:28:42;;;;;;;1.35;0.65;;;;;;;9.13;58.01;94388.13;4891993;29;20073;-83
2023/11/16 08:31:07;;;;;;;3.15;0.52;;;;;;;9.19;56.69;94371.00;4891779;29;20057;-84
2023/11/16 08:33:33;;;;;;;1.73;0.80;;;;;;;9.19;57.33;94378.97;4891582;29;20057;-81
2023/11/16 08:36:00;;;;;;;1.77;0.82;;;;;;;9.15;56.33;94365.47;4891674;29;20044;-82
2023/11/16 08:38:27;;;;;;;3.60;0.68;;;;;;;9.14;56.95;94373.72;4890338;29;20322;-83
2023/11/16 08:40:59;;;;;;;1.40;0.60;;;;;;;9.07;56.48;94395.38;4891478;29;20260;-82
2023/11/16 08:43:27;;;;;;;1.58;0.40;;;;;;;9.16;57.85;94376.88;4891433;29;20092;-82
2023/11/16 08:45:54;;;;;;;1.38;0.70;;;;;;;9.12;59.17;94367.91;4891614;29;20054;-83
2023/11/16 08:48:30;;;;;;;1.30;0.50;;;;;;;9.10;58.51;94362.09;4892409;29;20053;-85
2023/11/16 08:50:57;;;;;;;2.28;0.65;;;;;;;9.16;58.97;94387.53;4891967;29;20096;-85
2023/11/16 08:53:23;;;;;;;1.10;0.73;;;;;;;9.16;58.95;94371.56;4892496;29;20075;-85
2023/11/16 08:55:49;;;;;;;0.93;0.60;;;;;;;9.22;59.45;94365.91;4894488;29;20024;-85
2023/11/16 08:58:16;;;;;;;3.10;0.75;;;;;;;9.33;59.44;94365.72;4891084;29;20158;-83
2023/11/16 09:00:45;;;;;;;1.92;0.68;;;;;;;9.41;58.98;94378.34;4890706;29;20029;-82
2023/11/16 09:03:10;;;;;;;1.35;0.85;;;;;;;9.46;58.89;94366.81;4892007;29;20303;-85
2023/11/16 09:05:37;;;;;;;4.35;0.82;;;;;;;9.41;58.71;94373.81;4891295;29;20048;-85
2023/11/16 09:08:03;;;;;;;2.15;0.68;;;;;;;9.61;59.51;94366.56;4890186;29;20045;-85
2023/11/16 09:10:31;;;;;;;2.03;0.60;;;;;;;9.69;58.87;94373.06;4889896;29;20021;-85
2023/11/16 09:12:57;;;;;;;4.25;0.93;;;;;;;9.71;58.55;94361.06;4890909;29;20025;-84
2023/11/16 09:15:23;;;;;;;2.05;1.00;;;;;;;9.82;57.34;94361.66;4891200;29;20037;-86
2023/11/16 09:17:50;;;;;;;1.27;0.70;;;;;;;9.79;55.55;94370.22;4890885;29;20064;-83
2023/11/16 09:20:18;;;;;;;1.60;0.60;;;;;;;9.76;56.03;94379.59;4891035;29;20028;-86
2023/11/16 09:22:50;;;;;;;1.63;0.70;;;;;;;9.77;55.84;94370.53;4890935;29;20076;-84
2023/11/16 09:25:20;;;;;;;0.77;0.40;;;;;;;9.62;54.44;94360.16;4890721;29;20035;-76
2023/11/16 09:27:54;;;;;;;1.35;0.40;;;;;;;9.54;53.98;94380.25;4889398;29;20020;-76
2023/11/16 09:30:22;;;;;;;1.58;0.52;;;;;;;9.61;54.45;94361.25;4890365;29;20025;-77
2023/11/16 09:32:50;;;;;;;2.60;0.50;;;;;;;9.66;53.25;94366.47;4889282;29;20033;-76
2023/11/16 09:35:21;;;;;;;0.43;0.30;;;;;;;9.70;53.46;94364.78;4890245;29;20028;-75
2023/11/16 09:37:48;;;;;;;0.98;0.60;;;;;;;9.70;52.43;94375.44;4890462;29;20077;-77
2023/11/16 09:40:14;;;;;;;4.93;0.63;;;;;;;9.74;52.85;94363.13;4890701;29;20037;-77
2023/11/16 09:42:43;;;;;;;3.53;0.57;;;;;;;9.74;52.73;94376.44;4890383;29;20024;-77
2023/11/16 09:45:09;;;;;;;1.65;0.60;;;;;;;9.80;53.66;94371.81;4890187;29;20032;-77
2023/11/16 09:47:44;;;;;;;1.08;0.45;;;;;;;9.87;52.97;94358.09;4889083;29;20212;-77
2023/11/16 09:50:10;;;;;;;1.50;0.60;;;;;;;9.87;53.35;94347.44;4890048;29;20017;-77
2023/11/16 09:52:39;;;;;;;1.08;0.50;;;;;;;9.93;52.80;94347.06;4890114;29;20251;-77
2023/11/16 09:55:09;;;;;;;2.70;0.55;;;;;;;9.95;52.50;94360.88;4889890;29;20024;-77
2023/11/16 09:57:40;;;;;;;0.90;0.50;;;;;;;9.85;51.36;94358.41;4890122;29;20029;-77
2023/11/16 10:00:18;;;;;;;5.03;0.57;;;;;;;9.79;52.95;94357.72;4890186;29;20587;-78
2023/11/16 10:02:49;;;;;;;0.88;0.40;;;;;;;9.82;51.90;94351.78;4890353;29;20100;-77
2023/11/16 10:05:26;;;;;;;2.03;0.50;;;;;;;9.88;51.46;94336.50;4890071;29;20042;-76
2023/11/16 10:07:56;;;;;;;2.03;0.55;;;;;;;9.95;51.70;94349.41;4889566;29;20268;-76
2023/11/16 10:10:29;;;;;;;1.25;0.60;;;;;;;9.98;51.58;94367.47;4889338;29;20037;-77
2023/11/16 10:12:56;;;;;;;1.40;0.60;;;;;;;10.03;51.73;94362.84;4889514;29;20107;-80
2023/11/16 10:15:22;;;;;;;2.58;0.82;;;;;;;9.99;52.37;94331.75;4888420;29;20024;-78
2023/11/16 10:17:51;;;;;;;0.50;0.40;;;;;;;10.09;50.74;94342.19;4889831;29;20135;-88
2023/11/16 10:20:20;;;;;;;2.70;0.80;;;;;;;10.13;51.35;94347.72;4890424;29;20025;-85
2023/11/16 10:22:47;;;;;;;0.55;0.38;;;;;;;10.06;50.10;94328.72;4891137;29;20103;-88
2023/11/16 10:25:14;;;;;;;0.88;0.43;;;;;;;10.09;50.02;94339.53;4890518;29;20024;-88
2023/11/16 10:27:41;;;;;;;1.88;0.60;;;;;;;10.14;50.18;94326.13;4889543;29;20049;-87
2023/11/16 10:30:11;;;;;;;1.13;0.70;;;;;;;10.16;50.46;94310.63;4890192;29;20334;-87
2023/11/16 10:32:42;;;;;;;1.45;0.50;;;;;;;10.17;50.11;94330.84;4890605;29;20025;-87
2023/11/16 10:35:12;;;;;;;2.20;0.65;;;;;;;10.20;50.86;94313.50;4890274;29;20103;-88
2023/11/16 10:37:44;;;;;;;0.68;0.30;;;;;;;10.14;49.48;94312.81;4890720;29;20042;-92
2023/11/16 10:40:11;;;;;;;3.13;0.65;;;;;;;10.15;50.36;94324.25;4887916;29;20057;-84
2023/11/16 10:42:41;;;;;;;1.27;0.60;;;;;;;10.15;50.85;94322.34;4888828;29;20100;-83
2023/11/16 10:45:14;;;;;;;1.00;0.50;;;;;;;10.05;50.44;94303.94;4889128;29;20059;-83
2023/11/16 10:47:42;;;;;;;6.20;0.70;;;;;;;10.13;50.64;94323.75;4889245;29;20102;-83
2023/11/16 10:50:10;;;;;;;1.08;0.50;;;;;;;10.03;50.23;94290.13;4888009;29;20100;-83
2023/11/16 10:52:39;;;;;;;1.08;0.38;;;;;;;10.08;49.48;94303.34;4887997;29;20024;-83
2023/11/16 10:55:13;;;;;;;1.52;0.90;;;;;;;10.09;49.48;94307.56;4889166;29;20025;-83
2023/11/16 10:57:40;;;;;;;1.42;0.70;;;;;;;10.13;49.86;94289.91;4887636;29;20109;-83
2023/11/16 11:00:16;;;;;;;3.83;0.70;;;;;;;10.19;50.10;94280.72;4888817;29;20025;-86
2023/11/16 11:02:47;;;;;;;7.00;2.15;;;;;;;10.30;51.38;94275.19;4889495;29;20028;-85
2023/11/16 11:05:21;;;;;;;1.00;0.57;;;;;;;10.34;49.77;94281.50;4889207;29;20288;-82
2023/11/16 11:07:54;;;;;;;3.35;0.52;;;;;;;10.30;49.61;94302.66;4888857;29;20024;-82
2023/11/16 11:10:32;;;;;;;2.45;0.40;;;;;;;10.25;49.63;94282.19;4887666;29;20028;-83
2023/11/16 11:13:03;;;;;;;1.33;0.60;;;;;;;10.28;50.23;94283.47;4888876;29;20334;-83
2023/11/16 11:15:36;;;;;;;1.73;0.70;;;;;;;10.41;50.05;94288.00;4887672;29;20024;-83
2023/11/16 11:18:05;;;;;;;0.90;0.43;;;;;;;10.41;49.07;94287.22;4887506;29;20063;-84
2023/11/16 11:20:43;;;;;;;1.95;0.57;;;;;;;10.39;49.56;94292.06;4888545;29;20033;-83
2023/11/16 11:23:16;;;;;;;2.67;0.82;;;;;;;10.41;49.18;94292.53;4888319;29;20021;-84
2023/11/16 11:25:41;;;;;;;;;;;;;;;10.41;49.38;94297.88;4888124;29;20029;-84
2023/11/16 11:28:08;;;;;;;5.18;0.80;;;;;;;10.41;50.30;94290.66;4889272;29;20087;-88
2023/11/16 11:30:38;;;;;;;1.67;1.25;;;;;;;10.45;50.18;94282.88;4888941;29;20029;-87
2023/11/16 11:33:08;;;;;;;1.38;0.63;;;;;;;10.62;50.24;94287.53;4889058;29;20089;-86
2023/11/16 11:35:37;;;;;;;1.65;0.63;;;;;;;10.74;49.78;94292.31;4887936;29;20040;-87
2023/11/16 11:38:18;;;;;;;3.13;0.63;;;;;;;10.73;49.63;94282.78;4888462;29;20033;-85
2023/11/16 11:40:52;;;;;;;1.10;0.57;;;;;;;10.76;49.39;94276.81;4887882;29;20021;-85
2023/11/16 11:43:27;;;;;;;1.42;0.77;;;;;;;10.84;48.49;94294.75;4888334;29;20069;-85
2023/11/16 11:45:57;;;;;;;5.75;0.80;;;;;;;10.73;48.89;94272.09;4888180;29;20021;-85